Enter the Airport ICAO Code

Search by Airport or City

Current Weather

LFPG | Charles de Gaulle Airport (Roissy Airport)

Paris, Île-de-France, France

Last Update 33 Minutes Ago

Sky Without Significant nor Low Altitude Clouds

Temperature of 07 ºC

Light Winds from SouthWest

Temperature

07 ºC

Dew Point Temperature

00 ºC

Relative Humidity

61.05 %

Wind Direction

SouthWest (240º, Ranging from 200º to 290º)

Wind Velocity

7 km/h (04 kt)

Gusts

None

Visibility

Reduced to 8.0 Kilometers

Sea Level Pressure

1021 hPa (Hectopascals)

Layers of Clouds

None

METAR LFPG 090930Z 24004KT 200V290 8000 NSC 07/00 Q1021 NOSIG

Weather Forecast

LFPG | Charles de Gaulle Airport (Roissy Airport)

Paris, Île-de-France, France

Forecast valid for the next 26 Hours

From now on it is expected:

Clear Sky

Light to Moderate Winds from North

In 4 hours it is expected the begining of 3 hours with intermittent periods of:

Light Rain

Maximum Temperature

11 ºC in 4 Hours

Minimum Temperature

01 ºC in -4 Hours

TAF LFPG 090500Z 0906/1012 34008KT CAVOK TX11/0914Z TN01/0906Z TEMPO 0914/0917 4000 -SHRA BKN025TCU